PrentiSS Brown — WDE6848 — position and weather

sailwx.info

Track history (hours):
 
Tides and Currents Weather Stations Pressure Air Temp Water Temp Dewpoint Dewpoint Depression Visibility Wind Speed Wind Dir Waves Ship Positions

PrentiSS Brown

Owner: Port City Marine Services Inc, Muskegon, MI. More information available from US FCC via Universal Licensing System and Coast Guard Vessel Documentation Center.

Last reported at 2016-May-04 16:09 UTC. Time now 2016-May-04 21:14 UTC.
Position N 45°31' W 086°12'.

; draft 5.3 m.

Type: Other ship. MMSI: 366922280.

Date/timePositionNaut miles runAvg speedWind from/ knotsBaromVisibWave heightAir tempDewpointWater temp
2016-May-04 16:09N 45°31' W 086°12'5 8.0
2016-May-04 15:33N 45°31' W 086°05'8 8.0
2016-May-04 14:33N 45°32' W 085°54'8 7.9
2016-May-04 13:33N 45°30' W 085°43'8 8.2
2016-May-04 12:33N 45°26' W 085°33'8 8.4
2016-May-04 11:33N 45°22' W 085°22'4 4.3
2016-May-04 10:33N 45°19' W 085°18'0 0.0
2016-May-04 09:33N 45°19' W 085°18'0 0.0
2016-May-04 08:33N 45°19' W 085°18'0 0.0
2016-May-04 07:33N 45°19' W 085°18'0 0.0
2016-May-04 06:33N 45°19' W 085°18'0 0.0
2016-May-04 05:33N 45°19' W 085°18'0 0.0
2016-May-04 04:33N 45°19' W 085°18'0 0.0
2016-May-04 03:33N 45°19' W 085°18'1 0.7
2016-May-04 02:33N 45°19' W 085°17'3 3.3
2016-May-04 01:33N 45°19' W 085°22'7 6.8
2016-May-04 00:33N 45°16' W 085°30'7 7.2
2016-May-03 23:33N 45°13' W 085°39'9 9.3
2016-May-03 22:33N 45°06' W 085°49'9 9.3
2016-May-03 21:33N 44°60' W 085°59'11 0.2
2016-May-01 22:33N 45°08' W 085°47'9 8.7
2016-May-01 21:33N 45°13' W 085°38'9 8.8
2016-May-01 20:33N 45°17' W 085°26'7 6.8
2016-May-01 19:33N 45°19' W 085°17'0 0.4
2016-May-01 18:33N 45°19' W 085°18'0 0.0
2016-May-01 17:33N 45°19' W 085°18'0 0.0
2016-May-01 16:33N 45°19' W 085°18'0 0.0
2016-May-01 15:33N 45°19' W 085°18'0 0.0
2016-May-01 14:33N 45°19' W 085°18'0 0.3
2016-May-01 13:33N 45°19' W 085°17'9 8.7
2016-May-01 12:33N 45°28' W 085°16'9 9.5
2016-May-01 11:33N 45°37' W 085°15'9 9.4
2016-May-01 10:33N 45°46' W 085°09'7 7.3
2016-May-01 09:33N 45°50' W 085°00'10 9.5
2016-May-01 08:33N 45°49' W 084°47'9 9.3
2016-May-01 07:33N 45°45' W 084°35'9 9.4
2016-May-01 06:33N 45°41' W 084°22'9 9.3
2016-May-01 05:33N 45°38' W 084°10'9 9.4
2016-May-01 04:33N 45°34' W 083°58'  
2016-Apr-28 02:04N 45°40' W 084°14'5 8.8
2016-Apr-28 01:33N 45°41' W 084°20'9 8.9
2016-Apr-28 00:33N 45°44' W 084°33'9 9.0
2016-Apr-27 23:33N 45°49' W 084°43'9 9.1
2016-Apr-27 22:33N 45°49' W 084°56'8 8.4
2016-Apr-27 21:33N 45°48' W 085°08'9 8.7
2016-Apr-27 20:33N 45°40' W 085°13'9 8.8
2016-Apr-27 19:33N 45°32' W 085°16'9 8.7
2016-Apr-27 18:33N 45°23' W 085°17'4 4.1
2016-Apr-27 17:33N 45°19' W 085°18'0 0.0
2016-Apr-27 16:33N 45°19' W 085°18'0 0.0
2016-Apr-27 15:33N 45°19' W 085°18'0 0.0
2016-Apr-27 14:33N 45°19' W 085°18'2 1.7
2016-Apr-27 13:33N 45°20' W 085°20'9 9.2
2016-Apr-27 12:33N 45°16' W 085°31'9 9.0
2016-Apr-27 11:33N 45°11' W 085°42'9 9.2
2016-Apr-27 10:33N 45°04' W 085°51'6 6.5
2016-Apr-27 09:33N 44°60' W 085°58'  
Track history (hours):
 
Tides and Currents Weather Stations Pressure Air Temp Water Temp Dewpoint Dewpoint Depression Visibility Wind Speed Wind Dir Waves Ship Positions

PrentiSS Brown

Owner: Port City Marine Services Inc, Muskegon, MI. More information available from US FCC via Universal Licensing System and Coast Guard Vessel Documentation Center.

Last reported at 2016-May-04 16:09 UTC. Time now 2016-May-04 21:14 UTC.
Position N 45°31' W 086°12'.

; draft 5.3 m.

Type: Other ship. MMSI: 366922280.

Date/timePositionNaut miles runAvg speedWind from/ knotsBaromVisibWave heightAir tempDewpointWater temp
2016-May-04 16:09N 45°31' W 086°12'5 8.0
2016-May-04 15:33N 45°31' W 086°05'8 8.0
2016-May-04 14:33N 45°32' W 085°54'8 7.9
2016-May-04 13:33N 45°30' W 085°43'8 8.2
2016-May-04 12:33N 45°26' W 085°33'8 8.4
2016-May-04 11:33N 45°22' W 085°22'4 4.3
2016-May-04 10:33N 45°19' W 085°18'0 0.0
2016-May-04 09:33N 45°19' W 085°18'0 0.0
2016-May-04 08:33N 45°19' W 085°18'0 0.0
2016-May-04 07:33N 45°19' W 085°18'0 0.0
2016-May-04 06:33N 45°19' W 085°18'0 0.0
2016-May-04 05:33N 45°19' W 085°18'0 0.0
2016-May-04 04:33N 45°19' W 085°18'0 0.0
2016-May-04 03:33N 45°19' W 085°18'1 0.7
2016-May-04 02:33N 45°19' W 085°17'3 3.3
2016-May-04 01:33N 45°19' W 085°22'7 6.8
2016-May-04 00:33N 45°16' W 085°30'7 7.2
2016-May-03 23:33N 45°13' W 085°39'9 9.3
2016-May-03 22:33N 45°06' W 085°49'9 9.3
2016-May-03 21:33N 44°60' W 085°59'11 0.2
2016-May-01 22:33N 45°08' W 085°47'9 8.7
2016-May-01 21:33N 45°13' W 085°38'9 8.8
2016-May-01 20:33N 45°17' W 085°26'7 6.8
2016-May-01 19:33N 45°19' W 085°17'0 0.4
2016-May-01 18:33N 45°19' W 085°18'0 0.0
2016-May-01 17:33N 45°19' W 085°18'0 0.0
2016-May-01 16:33N 45°19' W 085°18'0 0.0
2016-May-01 15:33N 45°19' W 085°18'0 0.0
2016-May-01 14:33N 45°19' W 085°18'0 0.3
2016-May-01 13:33N 45°19' W 085°17'9 8.7
2016-May-01 12:33N 45°28' W 085°16'9 9.5
2016-May-01 11:33N 45°37' W 085°15'9 9.4
2016-May-01 10:33N 45°46' W 085°09'7 7.3
2016-May-01 09:33N 45°50' W 085°00'10 9.5
2016-May-01 08:33N 45°49' W 084°47'9 9.3
2016-May-01 07:33N 45°45' W 084°35'9 9.4
2016-May-01 06:33N 45°41' W 084°22'9 9.3
2016-May-01 05:33N 45°38' W 084°10'9 9.4
2016-May-01 04:33N 45°34' W 083°58'  
2016-Apr-28 02:04N 45°40' W 084°14'5 8.8
2016-Apr-28 01:33N 45°41' W 084°20'9 8.9
2016-Apr-28 00:33N 45°44' W 084°33'9 9.0
2016-Apr-27 23:33N 45°49' W 084°43'9 9.1
2016-Apr-27 22:33N 45°49' W 084°56'8 8.4
2016-Apr-27 21:33N 45°48' W 085°08'9 8.7
2016-Apr-27 20:33N 45°40' W 085°13'9 8.8
2016-Apr-27 19:33N 45°32' W 085°16'9 8.7
2016-Apr-27 18:33N 45°23' W 085°17'4 4.1
2016-Apr-27 17:33N 45°19' W 085°18'0 0.0
2016-Apr-27 16:33N 45°19' W 085°18'0 0.0
2016-Apr-27 15:33N 45°19' W 085°18'0 0.0
2016-Apr-27 14:33N 45°19' W 085°18'2 1.7
2016-Apr-27 13:33N 45°20' W 085°20'9 9.2
2016-Apr-27 12:33N 45°16' W 085°31'9 9.0
2016-Apr-27 11:33N 45°11' W 085°42'9 9.2
2016-Apr-27 10:33N 45°04' W 085°51'6 6.5
2016-Apr-27 09:33N 44°60' W 085°58'  

Dump ship's entire track history